Middletown, Indiana
Current Conditions -  °F | °C
As of 1:53 AM on Wednesday 26 Nov 2014 (Local Time) from KMIE Reporting Station
Overcast Overcast  
Wind Chill: 20°   Ceiling: 1200
Heat Index: 27°   Visibility: 10mi
Dew Point: 22°   Wind: 6mph
Humidity: 81%   Direction: 310°NW
Pressure: 30.15"   Gusts: NA
Location:  40.06°N, 85.54°W
Report Text: KMIE 260653Z AUTO 31005KT 10SM OVC012 M03/M06 A3015 RMK AO2 SLP218 T10281056
Loading
Personal Weather Stations






























Interactive Weather Map New forecast layout! Learn more

10-Day Weather Forecast

Advertisements
Track Severe Weather on mobile